Chatawa, Mississippi
Current Conditions -  °F | °C
As of 10:53 AM on Sunday 23 Nov 2014 (Local Time) from KMCB Reporting Station
Overcast Overcast  
Wind Chill: 65°   Ceiling: 1900
Heat Index: 65°   Visibility: 10mi
Dew Point: 59°   Wind: 10mph
Humidity: 81%   Direction: 210°SSW
Pressure: 29.64"   Gusts: 23mph
Location:  31.06°N, 90.47°W
Report Text: KMCB 231653Z AUTO 21009G20KT 10SM BKN019 OVC025 18/15 A2964 RMK AO2 SLP035 T01830150
Loading
Personal Weather Stations






























Interactive Weather Map New forecast layout! Learn more

10-Day Weather Forecast

Advertisements
Track Severe Weather on mobile